Time;durP1;ratioP1;P1;durP2;ratioP2;P2;SDS_P1;SDS_P2;PMS_P1;PMS_P2;Temp;Humidity;BMP_temperature;BMP_pressure;BME280_temperature;BME280_humidity;BME280_pressure;Samples;Min_cycle;Max_cycle;Signal;HPM_P1;HPM_P2
2023/12/24 00:00:16;;;;;;;3.70;1.27;;;10.50;99.90;;;;;;5028587;28;21052;-70
2023/12/24 00:03:02;;;;;;;4.77;1.50;;;10.50;99.90;;;;;;5035954;28;20457;-72
2023/12/24 00:05:47;;;;;;;3.00;1.33;;;10.50;99.90;;;;;;5033016;28;20486;-72
2023/12/24 00:08:33;;;;;;;6.20;1.37;;;10.60;99.90;;;;;;5030215;28;20528;-72
2023/12/24 00:11:19;;;;;;;3.33;1.60;;;10.60;99.90;;;;;;5029291;28;20694;-71
2023/12/24 00:14:05;;;;;;;5.40;1.80;;;10.60;99.90;;;;;;5030191;28;20455;-71
2023/12/24 00:16:52;;;;;;;2.33;1.83;;;10.60;99.90;;;;;;5031241;28;20453;-71
2023/12/24 00:19:37;;;;;;;2.60;1.30;;;10.60;99.90;;;;;;5039970;28;20400;-71
2023/12/24 00:22:23;;;;;;;2.10;1.30;;;10.60;99.90;;;;;;5044645;28;20406;-71
2023/12/24 00:25:09;;;;;;;5.43;1.53;;;10.60;99.90;;;;;;5029402;28;20462;-71
2023/12/24 00:27:55;;;;;;;4.37;1.93;;;10.60;99.90;;;;;;5038042;28;20455;-70
2023/12/24 00:30:40;;;;;;;4.90;1.47;;;10.60;99.90;;;;;;5032610;28;20608;-71
2023/12/24 00:33:27;;;;;;;3.87;1.40;;;10.60;99.90;;;;;;5031854;28;20449;-70
2023/12/24 00:36:13;;;;;;;2.37;1.23;;;10.70;99.90;;;;;;5039851;28;20955;-70
2023/12/24 00:38:59;;;;;;;3.60;1.30;;;10.60;99.90;;;;;;5030128;28;20444;-72
2023/12/24 00:41:44;;;;;;;4.30;1.40;;;10.70;99.90;;;;;;5033681;28;20508;-73
2023/12/24 00:44:30;;;;;;;3.53;1.03;;;10.60;99.90;;;;;;5037830;28;20976;-71
2023/12/24 00:47:16;;;;;;;2.37;1.10;;;10.70;99.90;;;;;;5032775;28;20552;-71
2023/12/24 00:50:03;;;;;;;5.43;1.83;;;10.60;99.90;;;;;;5035058;28;20502;-70
2023/12/24 00:52:49;;;;;;;2.77;1.30;;;10.60;99.90;;;;;;5036976;28;20472;-71
2023/12/24 00:55:34;;;;;;;3.90;1.20;;;10.60;99.90;;;;;;5038659;28;20491;-71
2023/12/24 00:58:20;;;;;;;6.73;1.60;;;10.60;99.90;;;;;;5036958;28;20486;-72
2023/12/24 01:01:06;;;;;;;4.23;1.57;;;10.60;99.90;;;;;;5029071;28;20430;-71
2023/12/24 01:03:52;;;;;;;1.70;1.20;;;10.60;99.90;;;;;;5035193;28;20944;-70
2023/12/24 01:06:38;;;;;;;3.23;1.63;;;10.60;99.90;;;;;;5038487;28;20956;-71
2023/12/24 01:09:24;;;;;;;5.10;1.30;;;10.60;99.90;;;;;;5039076;28;20455;-71
2023/12/24 01:12:10;;;;;;;2.70;1.37;;;10.60;99.90;;;;;;5025219;28;20606;-71
2023/12/24 01:14:56;;;;;;;3.13;1.00;;;10.60;99.90;;;;;;5034879;28;20986;-70
2023/12/24 01:17:42;;;;;;;4.53;1.53;;;10.60;99.90;;;;;;5031067;28;20466;-70
2023/12/24 01:20:27;;;;;;;2.33;1.20;;;10.50;99.90;;;;;;5036850;28;20450;-71
2023/12/24 01:23:15;;;;;;;1.77;1.20;;;10.50;99.90;;;;;;5038303;28;20824;-71
2023/12/24 01:26:00;;;;;;;4.60;1.37;;;10.50;99.90;;;;;;5034254;28;20806;-73
2023/12/24 01:28:46;;;;;;;2.03;0.90;;;10.60;99.90;;;;;;5033703;28;20855;-72
2023/12/24 01:31:32;;;;;;;2.00;1.17;;;10.60;99.90;;;;;;5034418;28;20548;-71
2023/12/24 01:34:18;;;;;;;4.53;1.53;;;10.60;99.90;;;;;;5032724;28;20521;-72
2023/12/24 01:37:03;;;;;;;1.97;1.10;;;10.60;99.90;;;;;;5032241;28;20439;-72
2023/12/24 01:39:51;;;;;;;3.57;1.40;;;10.60;99.90;;;;;;5031187;28;20455;-72
2023/12/24 01:42:36;;;;;;;2.40;1.13;;;10.70;99.90;;;;;;5031577;28;20439;-74
2023/12/24 01:45:22;;;;;;;3.60;1.20;;;10.70;99.90;;;;;;5034208;28;20427;-71
2023/12/24 01:48:08;;;;;;;2.93;1.20;;;10.70;99.90;;;;;;5041260;28;20425;-72
2023/12/24 01:50:54;;;;;;;6.50;1.77;;;10.60;99.90;;;;;;5037490;28;20465;-71
2023/12/24 01:53:40;;;;;;;1.90;1.17;;;10.60;99.90;;;;;;5040773;28;20423;-73
2023/12/24 01:56:29;;;;;;;2.00;1.20;;;10.60;99.90;;;;;;5039003;28;20783;-71
2023/12/24 01:59:16;;;;;;;1.93;1.00;;;10.60;99.90;;;;;;5039884;28;20398;-72
2023/12/24 02:02:04;;;;;;;2.07;1.30;;;10.60;99.90;;;;;;5037633;28;20490;-72
2023/12/24 02:04:50;;;;;;;4.40;1.47;;;10.60;99.90;;;;;;5044224;28;20530;-71
2023/12/24 02:07:36;;;;;;;3.00;1.30;;;10.60;99.90;;;;;;5030029;28;20455;-71
2023/12/24 02:10:22;;;;;;;2.20;1.20;;;10.60;99.90;;;;;;5037553;28;20485;-71
2023/12/24 02:13:10;;;;;;;1.97;1.07;;;10.60;99.90;;;;;;5035767;28;20869;-73
2023/12/24 02:15:59;;;;;;;2.80;1.50;;;10.70;99.90;;;;;;5036158;28;20454;-71
2023/12/24 02:18:45;;;;;;;4.03;1.30;;;10.60;99.90;;;;;;5033529;28;20470;-72
2023/12/24 02:21:32;;;;;;;2.03;1.00;;;10.60;99.90;;;;;;5038418;28;20422;-72
2023/12/24 02:24:18;;;;;;;2.80;1.33;;;10.60;99.90;;;;;;5039119;28;20427;-71
2023/12/24 02:27:11;;;;;;;1.70;1.10;;;10.50;99.90;;;;;;5034052;28;20886;-71
2023/12/24 02:30:03;;;;;;;2.10;0.87;;;10.60;99.90;;;;;;5034704;28;21917;-73
2023/12/24 02:32:54;;;;;;;3.60;1.10;;;10.60;99.90;;;;;;5038163;28;20545;-72
2023/12/24 02:35:41;;;;;;;4.90;1.43;;;10.60;99.90;;;;;;5039305;28;20447;-71
2023/12/24 02:38:28;;;;;;;1.70;1.00;;;10.60;99.90;;;;;;5044194;28;21003;-73
2023/12/24 02:41:14;;;;;;;2.60;1.27;;;10.60;99.90;;;;;;5039642;28;20436;-71
2023/12/24 02:43:59;;;;;;;2.20;1.10;;;10.50;99.90;;;;;;5036571;28;20543;-71
2023/12/24 02:46:45;;;;;;;4.73;0.90;;;10.60;99.90;;;;;;5035751;28;20827;-71
2023/12/24 02:49:31;;;;;;;2.27;0.77;;;10.60;99.90;;;;;;5038161;28;20508;-72
2023/12/24 02:52:17;;;;;;;1.50;0.80;;;10.50;99.90;;;;;;5035827;28;20523;-70
2023/12/24 02:55:04;;;;;;;2.27;0.90;;;10.50;99.90;;;;;;5035216;28;20409;-71
2023/12/24 02:57:50;;;;;;;3.40;1.00;;;10.50;99.90;;;;;;5036404;28;21121;-73
2023/12/24 03:00:35;;;;;;;1.80;1.00;;;10.50;99.90;;;;;;5029448;28;20456;-70
2023/12/24 03:03:21;;;;;;;1.87;0.97;;;10.50;99.90;;;;;;5040909;28;20950;-70
2023/12/24 03:06:07;;;;;;;3.20;1.47;;;10.50;99.90;;;;;;5034327;28;20605;-71
2023/12/24 03:08:52;;;;;;;2.70;0.70;;;10.50;99.90;;;;;;5034528;28;20475;-70
2023/12/24 03:11:40;;;;;;;1.50;0.80;;;10.40;99.90;;;;;;5043339;28;20478;-73
2023/12/24 03:14:25;;;;;;;2.37;0.90;;;10.50;99.90;;;;;;5041108;28;21012;-71
2023/12/24 03:17:11;;;;;;;1.53;0.97;;;10.50;99.90;;;;;;5028864;28;20551;-71
2023/12/24 03:19:56;;;;;;;2.10;0.93;;;10.40;99.90;;;;;;5035257;28;20455;-72
2023/12/24 03:22:42;;;;;;;1.70;0.90;;;10.40;99.90;;;;;;5035203;28;20514;-73
2023/12/24 03:25:28;;;;;;;3.33;1.27;;;10.30;99.90;;;;;;5044059;28;20462;-72
2023/12/24 03:28:15;;;;;;;1.63;1.00;;;10.30;99.90;;;;;;5032946;28;20976;-73
2023/12/24 03:31:01;;;;;;;1.80;1.03;;;10.30;99.90;;;;;;5040607;28;20524;-71
2023/12/24 03:33:47;;;;;;;1.80;0.83;;;10.40;99.90;;;;;;5027656;28;20443;-72
2023/12/24 03:36:32;;;;;;;2.70;0.80;;;10.30;99.90;;;;;;5039341;28;20664;-71
2023/12/24 03:39:18;;;;;;;2.70;1.10;;;10.30;99.90;;;;;;5033796;28;20452;-72
2023/12/24 03:42:04;;;;;;;1.80;1.00;;;10.30;99.90;;;;;;5040548;28;20426;-72
2023/12/24 03:44:51;;;;;;;2.27;0.90;;;10.30;99.90;;;;;;5032457;28;20869;-72
2023/12/24 03:47:37;;;;;;;4.03;1.00;;;10.30;99.90;;;;;;5035077;28;20472;-71
2023/12/24 03:50:22;;;;;;;6.93;1.10;;;10.40;99.90;;;;;;5040189;28;20515;-71
2023/12/24 03:53:08;;;;;;;2.17;1.23;;;10.40;99.90;;;;;;5034738;28;20530;-71
2023/12/24 03:55:54;;;;;;;2.00;1.00;;;10.40;99.90;;;;;;5042802;28;20445;-71
2023/12/24 03:58:39;;;;;;;2.53;1.30;;;10.30;99.90;;;;;;5037714;28;20818;-70
2023/12/24 04:01:28;;;;;;;1.70;1.10;;;10.30;99.90;;;;;;5039753;28;20428;-71
2023/12/24 04:04:13;;;;;;;1.90;1.00;;;10.30;99.90;;;;;;5037308;28;20426;-70
2023/12/24 04:07:00;;;;;;;1.83;1.17;;;10.30;99.90;;;;;;5029579;28;20795;-70
2023/12/24 04:09:45;;;;;;;2.30;1.63;;;10.30;99.90;;;;;;5039619;28;20430;-71
2023/12/24 04:12:31;;;;;;;2.73;1.20;;;10.20;99.90;;;;;;5037115;28;20486;-72
2023/12/24 04:15:17;;;;;;;1.87;1.27;;;10.30;99.90;;;;;;5038809;28;20453;-73
2023/12/24 04:18:06;;;;;;;3.93;1.47;;;10.30;99.90;;;;;;5040990;28;20465;-71
2023/12/24 04:20:51;;;;;;;1.70;1.10;;;10.30;99.90;;;;;;5033914;28;20457;-72
2023/12/24 04:23:37;;;;;;;2.10;1.20;;;10.30;99.90;;;;;;5039954;28;20482;-71
2023/12/24 04:26:22;;;;;;;2.20;1.27;;;10.30;99.90;;;;;;5039500;28;20428;-71
2023/12/24 04:29:08;;;;;;;2.13;0.93;;;10.40;99.90;;;;;;5041539;28;20528;-71
2023/12/24 04:31:53;;;;;;;1.70;1.10;;;10.30;99.90;;;;;;5027513;28;20495;-71
2023/12/24 04:34:40;;;;;;;2.00;1.10;;;10.40;99.90;;;;;;5037526;28;20444;-71
2023/12/24 04:37:26;;;;;;;2.10;1.07;;;10.30;99.90;;;;;;5037574;28;20606;-72
2023/12/24 04:40:13;;;;;;;1.97;1.27;;;10.30;99.90;;;;;;5033035;28;20480;-74
2023/12/24 04:42:58;;;;;;;3.17;1.10;;;10.30;99.90;;;;;;5030205;28;20452;-71
2023/12/24 04:45:44;;;;;;;2.33;1.20;;;10.30;99.90;;;;;;5033923;28;20454;-71
2023/12/24 04:48:29;;;;;;;3.00;1.20;;;10.30;99.90;;;;;;5044146;28;20419;-70
2023/12/24 04:51:16;;;;;;;1.40;0.80;;;10.30;99.90;;;;;;5030813;28;20624;-71
2023/12/24 04:54:02;;;;;;;3.00;1.27;;;10.40;99.90;;;;;;5034197;28;20467;-71
2023/12/24 04:56:48;;;;;;;2.50;1.13;;;10.40;99.90;;;;;;5047593;28;20439;-71
2023/12/24 04:59:34;;;;;;;2.80;0.90;;;10.40;99.90;;;;;;5034732;28;20545;-71
2023/12/24 05:02:19;;;;;;;2.00;1.03;;;10.30;99.90;;;;;;5038785;28;20517;-71
2023/12/24 05:05:06;;;;;;;1.63;0.90;;;10.30;99.90;;;;;;5043754;28;20457;-71
2023/12/24 05:07:53;;;;;;;2.73;1.13;;;10.30;99.90;;;;;;5044730;28;22272;-70
2023/12/24 05:10:38;;;;;;;2.13;1.00;;;10.20;99.90;;;;;;5043726;28;20934;-72
2023/12/24 05:13:24;;;;;;;1.63;0.80;;;10.20;99.90;;;;;;5032574;28;21122;-71
2023/12/24 05:16:10;;;;;;;2.43;0.93;;;10.20;99.90;;;;;;5022150;28;20518;-70
2023/12/24 05:18:55;;;;;;;4.17;1.10;;;10.30;99.90;;;;;;5039773;28;20823;-70
2023/12/24 05:21:41;;;;;;;1.40;0.80;;;10.30;99.90;;;;;;5038962;28;20425;-70
2023/12/24 05:24:28;;;;;;;3.17;0.90;;;10.20;99.90;;;;;;5039396;28;20532;-71
2023/12/24 05:27:14;;;;;;;1.67;0.80;;;10.20;99.90;;;;;;5042404;28;20486;-71
2023/12/24 05:29:59;;;;;;;1.80;1.00;;;10.20;99.90;;;;;;5042414;28;20672;-70
2023/12/24 05:32:45;;;;;;;5.33;0.97;;;10.20;99.90;;;;;;5034498;28;20978;-71
2023/12/24 05:35:31;;;;;;;1.50;0.83;;;10.10;99.90;;;;;;5047262;28;20457;-72
2023/12/24 05:38:18;;;;;;;2.57;0.97;;;10.10;99.90;;;;;;5040087;28;20502;-71
2023/12/24 05:41:05;;;;;;;1.80;0.90;;;10.10;99.90;;;;;;5042655;28;20573;-71
2023/12/24 05:43:50;;;;;;;2.50;0.97;;;10.10;99.90;;;;;;5029051;28;20450;-70
2023/12/24 05:46:36;;;;;;;1.33;0.70;;;10.20;99.90;;;;;;5035503;28;20454;-71
2023/12/24 05:49:22;;;;;;;1.27;0.63;;;10.20;99.90;;;;;;5037598;28;21085;-72
2023/12/24 05:52:07;;;;;;;1.93;0.70;;;10.20;99.90;;;;;;5042021;28;20526;-71
2023/12/24 05:54:54;;;;;;;1.93;0.97;;;10.20;99.90;;;;;;5040312;28;20464;-72
2023/12/24 05:57:41;;;;;;;2.50;0.90;;;10.10;99.90;;;;;;5037842;28;20478;-71
2023/12/24 06:00:27;;;;;;;1.40;0.70;;;10.10;99.90;;;;;;5044186;28;21041;-71
2023/12/24 06:03:12;;;;;;;1.20;0.60;;;10.10;99.90;;;;;;5043806;28;20427;-71
2023/12/24 06:05:58;;;;;;;1.50;0.80;;;10.00;99.90;;;;;;5035652;28;20977;-71
2023/12/24 06:08:44;;;;;;;1.23;0.67;;;10.00;99.90;;;;;;5043227;28;20979;-72
2023/12/24 06:11:30;;;;;;;1.67;0.80;;;10.00;99.90;;;;;;5047858;28;20471;-72
2023/12/24 06:14:17;;;;;;;1.40;0.83;;;10.00;99.90;;;;;;5040453;28;20530;-71
2023/12/24 06:17:02;;;;;;;1.63;0.80;;;10.00;99.90;;;;;;5033153;28;20453;-71
2023/12/24 06:19:48;;;;;;;1.87;0.80;;;9.90;99.90;;;;;;5044666;28;20450;-72
2023/12/24 06:22:33;;;;;;;1.40;0.70;;;9.90;99.90;;;;;;5029619;28;20791;-71
2023/12/24 06:25:19;;;;;;;1.80;1.00;;;9.80;99.90;;;;;;5048435;28;20430;-71
2023/12/24 06:28:05;;;;;;;2.23;0.97;;;9.80;99.90;;;;;;5042231;28;20536;-72
2023/12/24 06:30:51;;;;;;;2.37;0.97;;;9.70;99.90;;;;;;5032550;28;20446;-72
2023/12/24 06:33:37;;;;;;;1.40;0.80;;;9.60;99.90;;;;;;5035596;28;20560;-71
2023/12/24 06:36:23;;;;;;;1.50;1.00;;;9.60;99.90;;;;;;5045947;28;20450;-72
2023/12/24 06:39:08;;;;;;;2.23;1.20;;;9.60;99.90;;;;;;5036555;28;20479;-71
2023/12/24 06:41:54;;;;;;;1.80;1.03;;;9.60;99.90;;;;;;5037197;28;20433;-73
2023/12/24 06:44:42;;;;;;;2.17;1.27;;;9.60;99.90;;;;;;5037669;28;20430;-71
2023/12/24 06:47:29;;;;;;;2.37;1.20;;;9.60;99.90;;;;;;5032193;28;20505;-71
2023/12/24 06:50:15;;;;;;;5.57;1.70;;;9.60;99.90;;;;;;5034337;28;20808;-71
2023/12/24 06:53:00;;;;;;;3.13;1.00;;;9.60;99.90;;;;;;5028779;28;20786;-71
2023/12/24 06:55:46;;;;;;;1.87;1.03;;;9.60;99.90;;;;;;5040317;28;20426;-71
2023/12/24 06:58:32;;;;;;;1.33;0.83;;;9.60;99.90;;;;;;5032293;28;20447;-71
2023/12/24 07:01:17;;;;;;;1.63;1.07;;;9.60;99.90;;;;;;5027383;28;20832;-71
2023/12/24 07:04:05;;;;;;;2.10;1.20;;;9.60;99.90;;;;;;5034406;28;20581;-71
2023/12/24 07:06:50;;;;;;;1.40;0.67;;;9.60;99.90;;;;;;5033744;28;20464;-71
2023/12/24 07:09:36;;;;;;;2.00;1.17;;;9.60;99.90;;;;;;5036772;28;20876;-71
2023/12/24 07:12:22;;;;;;;3.37;1.17;;;9.60;99.90;;;;;;5049451;28;20430;-70
2023/12/24 07:15:09;;;;;;;1.30;0.70;;;9.60;99.90;;;;;;5037069;28;20454;-71
2023/12/24 07:17:54;;;;;;;4.50;1.10;;;9.70;99.90;;;;;;5028044;28;20472;-71
2023/12/24 07:20:42;;;;;;;1.80;1.10;;;9.70;99.90;;;;;;5027175;28;20521;-71
2023/12/24 07:23:27;;;;;;;1.80;1.00;;;9.70;99.90;;;;;;5047228;28;20475;-71
2023/12/24 07:26:13;;;;;;;1.30;0.80;;;9.70;99.90;;;;;;5043365;28;20472;-70
2023/12/24 07:28:59;;;;;;;2.30;1.40;;;9.60;99.90;;;;;;5043858;28;20427;-71
2023/12/24 07:31:44;;;;;;;2.00;1.30;;;9.60;99.90;;;;;;5025641;28;20468;-71
2023/12/24 07:34:30;;;;;;;3.87;2.70;;;9.60;99.90;;;;;;5043751;28;20478;-71
2023/12/24 07:37:17;;;;;;;2.10;1.60;;;9.60;99.90;;;;;;5045883;28;20996;-72
2023/12/24 07:40:04;;;;;;;2.17;0.90;;;9.60;99.90;;;;;;5046349;28;20453;-71
2023/12/24 07:42:49;;;;;;;2.10;0.97;;;9.70;99.90;;;;;;5042846;28;20417;-71
2023/12/24 07:45:35;;;;;;;1.80;1.40;;;9.70;99.90;;;;;;5034795;28;20974;-72
2023/12/24 07:48:20;;;;;;;2.30;1.33;;;9.70;99.90;;;;;;5032700;28;20471;-72
2023/12/24 07:51:06;;;;;;;2.30;1.47;;;9.60;99.90;;;;;;5039709;28;20472;-72
2023/12/24 07:53:53;;;;;;;1.97;1.20;;;9.60;99.90;;;;;;5039344;28;20456;-71
2023/12/24 07:56:38;;;;;;;3.60;2.30;;;9.60;99.90;;;;;;5043172;28;20445;-72
2023/12/24 07:59:24;;;;;;;2.83;1.40;;;9.60;99.90;;;;;;5038581;28;20458;-71
2023/12/24 08:02:10;;;;;;;1.80;1.10;;;9.60;99.90;;;;;;5036393;28;20474;-71
2023/12/24 08:04:55;;;;;;;1.90;1.07;;;9.60;99.90;;;;;;5039370;28;20450;-72
2023/12/24 08:07:41;;;;;;;2.20;1.00;;;9.60;99.90;;;;;;5040775;28;20473;-71
2023/12/24 08:10:28;;;;;;;1.57;0.80;;;9.70;99.90;;;;;;5043544;28;20440;-72
2023/12/24 08:13:14;;;;;;;1.50;0.87;;;9.60;99.90;;;;;;5038864;28;20456;-71
2023/12/24 08:15:59;;;;;;;1.60;0.97;;;9.70;99.90;;;;;;5029142;28;20556;-71
2023/12/24 08:18:45;;;;;;;1.53;1.03;;;9.60;99.90;;;;;;5034617;28;20541;-71
2023/12/24 08:21:31;;;;;;;7.33;1.53;;;9.60;99.90;;;;;;5027733;28;20453;-72
2023/12/24 08:24:16;;;;;;;1.30;0.70;;;9.60;99.90;;;;;;5047165;28;20521;-71
2023/12/24 08:27:04;;;;;;;1.80;0.90;;;9.50;99.90;;;;;;5039279;28;20471;-72
2023/12/24 08:29:49;;;;;;;1.30;0.73;;;9.50;99.90;;;;;;5034222;28;20465;-71
2023/12/24 08:32:35;;;;;;;2.10;1.10;;;9.50;99.90;;;;;;5034815;28;20459;-71
2023/12/24 08:35:21;;;;;;;2.03;0.80;;;9.60;99.90;;;;;;5048866;28;20409;-71
2023/12/24 08:38:06;;;;;;;2.90;1.00;;;9.60;99.90;;;;;;5041649;28;20453;-71
2023/12/24 08:40:52;;;;;;;2.77;1.33;;;9.60;99.90;;;;;;5037473;28;20458;-71
2023/12/24 08:43:39;;;;;;;5.10;2.10;;;9.70;99.90;;;;;;5045943;28;20412;-71
2023/12/24 08:46:25;;;;;;;1.40;0.80;;;9.70;99.90;;;;;;5041240;28;20509;-71
2023/12/24 08:49:11;;;;;;;1.90;1.10;;;9.70;99.90;;;;;;5040890;28;21005;-71
2023/12/24 08:51:56;;;;;;;4.33;0.97;;;9.70;99.90;;;;;;5047656;28;20438;-71
2023/12/24 08:54:42;;;;;;;1.70;1.00;;;9.80;99.90;;;;;;5038047;28;20567;-71
2023/12/24 08:57:28;;;;;;;2.27;1.20;;;9.70;99.90;;;;;;5044553;28;20479;-72
2023/12/24 09:00:16;;;;;;;2.73;1.00;;;9.70;99.90;;;;;;5034605;28;20513;-71
2023/12/24 09:03:02;;;;;;;6.20;2.33;;;9.70;99.90;;;;;;5039251;28;20453;-71
2023/12/24 09:05:48;;;;;;;5.13;2.80;;;9.60;99.90;;;;;;5040200;28;20462;-72
2023/12/24 09:08:33;;;;;;;1.40;0.73;;;9.70;99.90;;;;;;5045269;28;20437;-71
2023/12/24 09:11:19;;;;;;;3.87;1.73;;;9.60;99.90;;;;;;5033403;28;20586;-72
2023/12/24 09:14:04;;;;;;;1.93;1.20;;;9.70;99.90;;;;;;5030161;28;21079;-71
2023/12/24 09:16:52;;;;;;;4.77;1.40;;;9.70;99.90;;;;;;5035095;28;20569;-71
2023/12/24 09:19:37;;;;;;;4.03;1.00;;;9.70;99.90;;;;;;5040451;28;20470;-71
2023/12/24 09:22:23;;;;;;;2.30;1.10;;;9.70;99.90;;;;;;5035263;28;20432;-71
2023/12/24 09:25:09;;;;;;;2.40;0.90;;;9.80;99.90;;;;;;5044086;28;20510;-72
2023/12/24 09:27:54;;;;;;;2.00;0.90;;;9.80;99.90;;;;;;5052162;28;20466;-71
2023/12/24 09:30:40;;;;;;;10.83;1.00;;;9.80;99.90;;;;;;5029538;28;20534;-71
2023/12/24 09:33:27;;;;;;;1.43;0.90;;;9.70;99.90;;;;;;5043535;28;20460;-71
2023/12/24 09:36:13;;;;;;;1.80;1.00;;;9.80;99.90;;;;;;5028852;28;20455;-72
2023/12/24 09:38:58;;;;;;;1.30;0.90;;;9.70;99.90;;;;;;5032766;28;20990;-70
2023/12/24 09:41:43;;;;;;;2.77;1.00;;;9.80;99.90;;;;;;5030324;28;20820;-72
2023/12/24 09:44:29;;;;;;;2.80;1.00;;;9.80;99.90;;;;;;5042098;28;20566;-72
2023/12/24 09:47:15;;;;;;;1.77;1.10;;;9.80;99.90;;;;;;5029848;28;20607;-72
2023/12/24 09:50:02;;;;;;;1.33;0.93;;;9.90;99.90;;;;;;5030793;28;20454;-71
2023/12/24 09:52:48;;;;;;;2.23;0.90;;;9.90;99.90;;;;;;5040379;28;20426;-71
2023/12/24 09:55:34;;;;;;;2.40;1.30;;;9.80;99.90;;;;;;5035184;28;20451;-71
2023/12/24 09:58:20;;;;;;;2.43;1.10;;;9.80;99.90;;;;;;5031872;28;20864;-71
2023/12/24 10:01:05;;;;;;;2.30;1.00;;;9.80;99.90;;;;;;5025146;28;20509;-72
2023/12/24 10:03:51;;;;;;;1.90;0.90;;;9.80;99.90;;;;;;5030555;28;20443;-71
2023/12/24 10:09:45;;;;;;;1.87;1.00;;;9.80;99.90;;;;;;5127543;27;20578;-73
2023/12/24 10:12:30;;;;;;;2.03;1.20;;;9.90;99.90;;;;;;5126223;27;20430;-74
2023/12/24 10:15:21;;;;;;;2.00;0.90;;;9.90;99.90;;;;;;5124458;28;21068;-71
2023/12/24 10:18:17;;;;;;;1.40;0.80;;;9.90;99.90;;;;;;5117870;28;20546;-72
2023/12/24 10:21:06;;;;;;;2.03;0.97;;;9.90;99.90;;;;;;5115754;28;20597;-72
2023/12/24 10:23:52;;;;;;;1.90;1.00;;;9.90;99.90;;;;;;5113395;28;20508;-71
2023/12/24 10:26:39;;;;;;;1.87;0.87;;;9.80;99.90;;;;;;5113878;28;20430;-73
2023/12/24 10:29:24;;;;;;;3.17;0.73;;;9.90;99.90;;;;;;5112120;28;20516;-71
2023/12/24 10:32:10;;;;;;;1.73;1.00;;;9.90;99.90;;;;;;5113584;28;20446;-71
2023/12/24 10:34:59;;;;;;;1.70;1.03;;;9.90;99.90;;;;;;5109339;28;21242;-71
2023/12/24 10:37:45;;;;;;;1.40;0.90;;;9.80;99.90;;;;;;5116292;28;20495;-73
2023/12/24 10:40:30;;;;;;;1.60;0.90;;;9.80;99.90;;;;;;5114691;28;20851;-73
2023/12/24 10:43:18;;;;;;;2.07;1.30;;;9.80;99.90;;;;;;5115357;28;20528;-72
2023/12/24 10:46:03;;;;;;;1.70;1.00;;;9.80;99.90;;;;;;5114547;28;20459;-72
2023/12/24 10:48:49;;;;;;;1.70;1.10;;;9.80;99.90;;;;;;5117855;28;20481;-73
2023/12/24 10:51:35;;;;;;;2.37;1.43;;;9.90;99.90;;;;;;5117779;28;20440;-71
2023/12/24 10:54:20;;;;;;;1.80;1.50;;;9.90;99.90;;;;;;5119615;28;20450;-71
2023/12/24 10:57:20;;;;;;;4.20;3.40;;;9.80;99.90;;;;;;5124664;28;20426;-72
2023/12/24 11:00:14;;;;;;;4.80;3.93;;;9.90;99.90;;;;;;5122291;28;20431;-70
2023/12/24 11:02:59;;;;;;;2.50;1.70;;;9.90;99.90;;;;;;5116138;28;20583;-71
2023/12/24 11:05:49;;;;;;;1.83;1.13;;;10.00;99.90;;;;;;5127050;28;20881;-71
2023/12/24 11:08:34;;;;;;;6.23;1.37;;;10.00;99.90;;;;;;5123666;28;20608;-72
2023/12/24 11:11:21;;;;;;;1.73;1.10;;;10.00;99.90;;;;;;5124385;28;20406;-70
2023/12/24 11:14:07;;;;;;;2.10;1.40;;;10.00;99.90;;;;;;5113535;28;20600;-73
2023/12/24 11:16:54;;;;;;;4.73;3.40;;;10.10;99.90;;;;;;5115218;28;20451;-73
2023/12/24 11:19:41;;;;;;;3.40;2.53;;;10.10;99.90;;;;;;5113562;28;20390;-71
2023/12/24 11:22:27;;;;;;;4.87;2.33;;;10.10;99.90;;;;;;5103960;28;20558;-72
2023/12/24 11:25:19;;;;;;;3.53;2.50;;;10.10;99.90;;;;;;5102415;28;20614;-70
2023/12/24 11:28:05;;;;;;;1.60;1.30;;;10.10;99.90;;;;;;5096826;28;20470;-71
2023/12/24 11:31:07;;;;;;;1.53;1.07;;;10.10;99.90;;;;;;5101380;28;20416;-73
2023/12/24 11:33:55;;;;;;;1.50;1.00;;;10.10;99.90;;;;;;5093389;28;20430;-71
2023/12/24 11:37:04;;;;;;;1.97;1.30;;;10.10;99.90;;;;;;5106083;28;20918;-71
2023/12/24 11:40:00;;;;;;;2.60;1.53;;;10.10;99.90;;;;;;5099020;28;20474;-72
2023/12/24 11:42:48;;;;;;;4.10;2.53;;;10.20;99.90;;;;;;5095692;28;20425;-72
2023/12/24 11:45:34;;;;;;;7.27;3.37;;;10.20;99.90;;;;;;5104410;28;20541;-72
2023/12/24 11:48:19;;;;;;;12.37;5.63;;;10.20;99.90;;;;;;5106223;28;20558;-71
2023/12/24 11:51:08;;;;;;;4.10;1.87;;;10.20;99.90;;;;;;5102758;28;20455;-71
2023/12/24 11:54:03;;;;;;;8.37;5.47;;;10.20;99.90;;;;;;5099362;28;20491;-71
2023/12/24 11:56:48;;;;;;;3.40;2.47;;;10.20;99.90;;;;;;5105005;28;20425;-71
2023/12/24 11:59:34;;;;;;;3.17;1.77;;;10.30;99.90;;;;;;5099762;28;20999;-71
2023/12/24 12:02:20;;;;;;;1.90;1.40;;;10.20;99.90;;;;;;5106911;28;20444;-71
2023/12/24 12:05:06;;;;;;;1.73;0.90;;;10.20;99.90;;;;;;5100491;28;20502;-71
2023/12/24 12:07:54;;;;;;;2.10;1.13;;;10.20;99.90;;;;;;5096985;28;20452;-72
2023/12/24 12:10:41;;;;;;;4.77;1.20;;;10.20;99.90;;;;;;5095249;28;20562;-71
2023/12/24 12:13:28;;;;;;;1.40;0.90;;;10.30;99.90;;;;;;5103003;28;20443;-71
2023/12/24 12:16:14;;;;;;;1.80;1.20;;;10.30;99.90;;;;;;5099355;28;20444;-72
2023/12/24 12:18:59;;;;;;;1.53;0.93;;;10.30;99.90;;;;;;5102097;28;20552;-71
2023/12/24 12:21:45;;;;;;;1.50;0.90;;;10.30;99.90;;;;;;5103572;28;20621;-72
2023/12/24 12:24:34;;;;;;;1.40;0.70;;;10.30;99.90;;;;;;5096223;28;20446;-72
2023/12/24 12:27:19;;;;;;;1.20;0.70;;;10.30;99.90;;;;;;5102984;28;20610;-72
2023/12/24 12:30:06;;;;;;;1.30;0.63;;;10.40;99.90;;;;;;5105428;28;20480;-73
2023/12/24 12:32:52;;;;;;;1.77;1.10;;;10.30;99.90;;;;;;5097197;28;20416;-72
2023/12/24 12:35:38;;;;;;;1.37;0.70;;;10.40;99.90;;;;;;5093192;28;20868;-71
2023/12/24 12:38:23;;;;;;;1.40;0.80;;;10.40;99.90;;;;;;5108180;28;20581;-72
2023/12/24 12:41:10;;;;;;;1.53;0.80;;;10.40;99.90;;;;;;5100753;28;20440;-73
2023/12/24 12:43:56;;;;;;;2.00;0.63;;;10.40;99.90;;;;;;5100546;28;20444;-71
2023/12/24 12:46:41;;;;;;;6.93;3.87;;;10.40;99.90;;;;;;5095453;28;20483;-72
2023/12/24 12:49:27;;;;;;;3.17;1.83;;;10.40;99.90;;;;;;5095421;28;20843;-72
2023/12/24 12:52:13;;;;;;;4.03;2.30;;;10.40;99.90;;;;;;5105259;28;20525;-74
2023/12/24 12:55:03;;;;;;;1.27;0.77;;;10.40;99.90;;;;;;5103030;28;20463;-72
2023/12/24 12:57:50;;;;;;;1.70;0.80;;;10.40;99.90;;;;;;5097329;28;20593;-71
2023/12/24 13:00:36;;;;;;;1.30;0.70;;;10.40;99.90;;;;;;5090901;28;20451;-72
2023/12/24 13:03:21;;;;;;;1.33;0.73;;;10.40;99.90;;;;;;5096128;28;20449;-72
2023/12/24 13:06:11;;;;;;;1.37;0.87;;;10.40;99.90;;;;;;5100915;28;20521;-73
2023/12/24 13:09:07;;;;;;;1.77;0.97;;;10.50;99.90;;;;;;5101768;28;20476;-72
2023/12/24 13:12:04;;;;;;;1.57;0.80;;;10.50;99.90;;;;;;5095091;28;20455;-72
2023/12/24 13:14:53;;;;;;;2.43;0.80;;;10.60;99.90;;;;;;5095861;28;20948;-72
2023/12/24 13:17:39;;;;;;;1.23;0.70;;;10.50;99.90;;;;;;5095809;28;22108;-73
2023/12/24 13:20:24;;;;;;;1.83;0.77;;;10.60;99.90;;;;;;5106078;28;20502;-72
2023/12/24 13:23:10;;;;;;;1.40;0.90;;;10.60;99.90;;;;;;5098441;28;20520;-73
2023/12/24 13:25:55;;;;;;;1.60;0.90;;;10.60;99.90;;;;;;5101660;28;20984;-73
2023/12/24 13:28:41;;;;;;;2.60;1.10;;;10.60;99.90;;;;;;5102701;28;20494;-71
2023/12/24 13:31:29;;;;;;;1.47;0.73;;;10.60;99.90;;;;;;5095766;28;20517;-72
2023/12/24 13:34:17;;;;;;;1.83;1.00;;;10.60;99.90;;;;;;5104624;28;20426;-74
2023/12/24 13:37:03;;;;;;;1.40;0.80;;;10.50;99.90;;;;;;5096907;28;20523;-73
2023/12/24 13:39:49;;;;;;;2.07;0.93;;;10.50;99.90;;;;;;5106740;28;20494;-72
2023/12/24 13:42:35;;;;;;;1.70;0.87;;;10.50;99.90;;;;;;5110865;28;20629;-71
2023/12/24 13:45:20;;;;;;;2.43;0.97;;;10.60;99.90;;;;;;5103440;28;20434;-72
2023/12/24 13:48:08;;;;;;;1.40;0.80;;;10.60;99.90;;;;;;5099649;28;20485;-74
2023/12/24 13:50:54;;;;;;;1.27;0.60;;;10.60;99.90;;;;;;5102240;28;20846;-72
2023/12/24 13:53:39;;;;;;;1.90;1.07;;;10.60;99.90;;;;;;5099446;28;20422;-71
2023/12/24 13:56:25;;;;;;;1.47;0.70;;;10.60;99.90;;;;;;5102995;28;20436;-72
2023/12/24 13:59:10;;;;;;;1.93;0.77;;;10.60;99.90;;;;;;5096487;28;20457;-74
2023/12/24 14:01:56;;;;;;;1.40;0.70;;;10.60;99.90;;;;;;5097607;28;20445;-71
2023/12/24 14:04:43;;;;;;;1.50;0.70;;;10.60;99.90;;;;;;5095399;28;20574;-72
2023/12/24 14:07:30;;;;;;;1.40;0.80;;;10.60;99.90;;;;;;5101932;28;20536;-72
2023/12/24 14:10:15;;;;;;;1.40;0.80;;;10.60;99.90;;;;;;5096152;28;20484;-71
2023/12/24 14:13:02;;;;;;;3.63;1.10;;;10.60;99.90;;;;;;5096972;28;20968;-72
2023/12/24 14:15:48;;;;;;;1.73;0.90;;;10.60;99.90;;;;;;5104836;28;20497;-70
2023/12/24 14:18:33;;;;;;;2.10;1.10;;;10.60;99.90;;;;;;5101877;28;20426;-71
2023/12/24 14:21:20;;;;;;;1.93;1.00;;;10.60;99.90;;;;;;5088004;28;21105;-75
2023/12/24 14:24:06;;;;;;;2.67;1.17;;;10.60;99.90;;;;;;5101727;28;20430;-70
2023/12/24 14:26:52;;;;;;;1.80;0.90;;;10.50;99.90;;;;;;5100410;28;20448;-70
2023/12/24 14:29:39;;;;;;;1.50;0.90;;;10.50;99.90;;;;;;5088260;28;20468;-71
2023/12/24 14:32:25;;;;;;;1.37;0.83;;;10.50;99.90;;;;;;5096639;28;20599;-71